Weather History for Bentonville, AR

Change the Weather History Date:

Monday, November 28, 2011

  Actual Average Record
Temperature  
Mean Temperature 37 °F -  
Max Temperature 42 °F 48 °F 73 °F (1949)
Min Temperature 32 °F 27 °F 12 °F (1952)
Degree Days  
Heating Degree Days 28    
Moisture  
Dew Point 26 °F    
Average Humidity 67    
Maximum Humidity 80    
Minimum Humidity 53    
Precipitation  
Precipitation 0.00 in - - ()
Sea Level Pressure  
Sea Level Pressure 30.04 in    
Wind  
Wind Speed 8 mph (North)    
Max Wind Speed 13 mph    
Max Gust Speed 17 mph    
Visibility 10 miles    
Events      
Averages and records for this station are not official NWS values.
T = Trace of Precipitation, MM = Missing Value Source: NWS Daily Summary

Daily Weather History Graph

Daily Weather History Graph

Search for Another Location

Airport:

Trip Planner

Search our weather history database for the weather conditions in past years. The results will help you decide how hot, cold, wet, or windy it might be!

Date:

Astronomy

Nov. 28, 2011 Rise Set
Actual Time 7:06 AM CST 5:02 PM CST
Civil Twilight 6:38 AM CST 5:30 PM CST
Nautical Twilight 6:06 AM CST 6:02 PM CST
Astronomical Twilight 5:35 AM CST 6:33 PM CST
Moon 10:17 AM CST (11/28) 8:48 PM CST (11/28)
Length of Visible Light 10h 52m
Length of Day
9h 55m
Waxing Crescent, 16% of the Moon is Illuminated
Nov 28
Waxing Crescent
Dec 2
First Quarter
Dec 10
Full
Dec 17
Last Quarter
Dec 24
New

Hourly Weather History & Observations

Time (CST) Temp. Windchill Dew Point Humidity Pressure Visibility Wind Dir Wind Speed Gust Speed Precip Events Conditions
12:15 AM 35.6 °F 29.9 °F 24.8 °F 65% 30.11 in 10.0 mi North 6.9 mph - N/A   Overcast
12:35 AM 33.8 °F 28.6 °F 24.8 °F 70% 30.10 in 10.0 mi North 5.8 mph - N/A   Overcast
12:55 AM 33.8 °F 27.7 °F 24.8 °F 70% 30.10 in 10.0 mi North 6.9 mph - N/A   Overcast
1:15 AM 33.8 °F 26.4 °F 24.8 °F 70% 30.09 in 10.0 mi North 9.2 mph - N/A   Overcast
1:35 AM 33.8 °F 25.8 °F 24.8 °F 70% 30.09 in 10.0 mi NNE 10.4 mph - N/A   Overcast
1:55 AM 33.8 °F 25.3 °F 24.8 °F 70% 30.09 in 10.0 mi NNE 11.5 mph 17.3 mph N/A   Overcast
2:15 AM 33.8 °F 28.6 °F 24.8 °F 70% 30.09 in 10.0 mi NNE 5.8 mph - N/A   Overcast
2:35 AM 33.8 °F 24.8 °F 23.0 °F 65% 30.09 in 10.0 mi North 12.7 mph 16.1 mph N/A   Overcast
2:55 AM 33.8 °F 29.6 °F 24.8 °F 70% 30.09 in 10.0 mi NNE 4.6 mph - N/A   Overcast
3:15 AM 33.8 °F 25.8 °F 24.8 °F 70% 30.09 in 10.0 mi North 10.4 mph - N/A   Overcast
3:35 AM 33.8 °F 26.4 °F 24.8 °F 70% 30.09 in 10.0 mi North 9.2 mph - N/A   Overcast
3:55 AM 33.8 °F 25.8 °F 24.8 °F 70% 30.09 in 10.0 mi North 10.4 mph - N/A   Overcast
4:15 AM 33.8 °F 27.7 °F 24.8 °F 70% 30.09 in 10.0 mi North 6.9 mph - N/A   Overcast
4:35 AM 33.8 °F 27.0 °F 24.8 °F 70% 30.09 in 10.0 mi North 8.1 mph - N/A   Overcast
4:55 AM 33.8 °F 27.0 °F 24.8 °F 70% 30.09 in 10.0 mi North 8.1 mph - N/A   Overcast
5:15 AM 33.8 °F 27.0 °F 24.8 °F 70% 30.09 in 10.0 mi North 8.1 mph - N/A   Overcast
5:35 AM 33.8 °F 27.7 °F 24.8 °F 70% 30.09 in 10.0 mi North 6.9 mph - N/A   Overcast
5:55 AM 32.0 °F 25.6 °F 24.8 °F 75% 30.09 in 10.0 mi North 6.9 mph - N/A   Overcast
6:35 AM 33.8 °F 27.7 °F 24.8 °F 70% 30.08 in 10.0 mi North 6.9 mph - N/A   Overcast
6:55 AM 33.8 °F 27.7 °F 24.8 °F 70% 30.09 in 10.0 mi North 6.9 mph - N/A   Overcast
7:15 AM 33.8 °F 27.0 °F 24.8 °F 70% 30.08 in 10.0 mi North 8.1 mph - N/A   Overcast
7:35 AM 33.8 °F 29.6 °F 24.8 °F 70% 30.08 in 10.0 mi North 4.6 mph - N/A   Overcast
7:55 AM 33.8 °F 27.7 °F 24.8 °F 70% 30.08 in 10.0 mi NNE 6.9 mph - N/A   Overcast
8:15 AM 33.8 °F 27.7 °F 24.8 °F 70% 30.08 in 10.0 mi ENE 6.9 mph - N/A   Overcast
8:35 AM 33.8 °F 27.7 °F 24.8 °F 70% 30.08 in 10.0 mi NNE 6.9 mph - N/A   Overcast
8:55 AM 33.8 °F 26.4 °F 26.6 °F 75% 30.08 in 10.0 mi NE 9.2 mph - N/A   Overcast
9:15 AM 35.6 °F 31.7 °F 26.6 °F 70% 30.08 in 10.0 mi NNE 4.6 mph - N/A   Overcast
9:35 AM 35.6 °F 29.9 °F 26.6 °F 70% 30.07 in 10.0 mi NNE 6.9 mph - N/A   Overcast
9:55 AM 35.6 °F 30.7 °F 26.6 °F 70% 30.08 in 10.0 mi NE 5.8 mph - N/A   Overcast
10:15 AM 37.4 °F 31.4 °F 24.8 °F 60% 30.07 in 10.0 mi NNE 8.1 mph - N/A   Mostly Cloudy
10:35 AM 37.4 °F 30.8 °F 26.6 °F 65% 30.07 in 10.0 mi NE 9.2 mph - N/A   Partly Cloudy
11:15 AM 37.4 °F 34.9 °F 26.6 °F 65% 30.06 in 10.0 mi North 3.5 mph - N/A   Partly Cloudy
11:55 AM 39.2 °F 34.2 °F 26.6 °F 61% 30.04 in 10.0 mi NNE 6.9 mph - N/A   Clear
12:15 PM 39.2 °F 33.6 °F 26.6 °F 61% 30.03 in 10.0 mi North 8.1 mph - N/A   Clear
12:35 PM 39.2 °F 35.9 °F 26.6 °F 61% 30.02 in 10.0 mi North 4.6 mph - N/A   Clear
12:55 PM 41.0 °F 36.4 °F 26.6 °F 57% 30.01 in 10.0 mi NNW 6.9 mph - N/A   Clear
1:15 PM 41.0 °F 36.4 °F 26.6 °F 57% 30.00 in 10.0 mi North 6.9 mph - N/A   Clear
1:35 PM 42.8 °F 37.5 °F 28.4 °F 57% 30.00 in 10.0 mi North 9.2 mph - N/A   Clear
1:55 PM 42.8 °F 38.0 °F 26.6 °F 53% 29.99 in 10.0 mi North 8.1 mph - N/A   Clear
2:15 PM 42.8 °F 37.5 °F 28.4 °F 57% 29.98 in 10.0 mi North 9.2 mph - N/A   Clear
2:35 PM 42.8 °F 38.0 °F 28.4 °F 57% 29.98 in 10.0 mi NW 8.1 mph - N/A   Clear
2:55 PM 42.8 °F 37.5 °F 28.4 °F 57% 29.97 in 10.0 mi North 9.2 mph - N/A   Clear
3:15 PM 42.8 °F 37.5 °F 28.4 °F 57% 29.96 in 10.0 mi NNW 9.2 mph - N/A   Clear
3:35 PM 42.8 °F 38.6 °F 28.4 °F 57% 29.96 in 10.0 mi NNW 6.9 mph - N/A   Clear
3:55 PM 42.8 °F 38.0 °F 26.6 °F 53% 29.96 in 10.0 mi NW 8.1 mph - N/A   Clear
4:15 PM 41.0 °F 35.2 °F 26.6 °F 57% 29.96 in 10.0 mi NW 9.2 mph - N/A   Clear
4:35 PM 39.2 °F 33.6 °F 26.6 °F 61% 29.96 in 10.0 mi NNW 8.1 mph - N/A   Clear
4:55 PM 39.2 °F 34.2 °F 26.6 °F 61% 29.95 in 10.0 mi NNW 6.9 mph - N/A   Clear
5:15 PM 37.4 °F 30.8 °F 26.6 °F 65% 29.95 in 10.0 mi NW 9.2 mph - N/A   Clear
5:35 PM 37.4 °F 32.1 °F 26.6 °F 65% 29.96 in 10.0 mi NW 6.9 mph - N/A   Clear
5:55 PM 35.6 °F 30.7 °F 26.6 °F 70% 29.96 in 10.0 mi NW 5.8 mph - N/A   Clear
6:15 PM 35.6 °F 29.2 °F 26.6 °F 70% 29.97 in 10.0 mi NNW 8.1 mph - N/A   Clear
6:35 PM 35.6 °F 29.2 °F 26.6 °F 70% 29.97 in 10.0 mi NNW 8.1 mph - N/A   Clear
6:55 PM 35.6 °F 30.7 °F 26.6 °F 70% 29.97 in 10.0 mi NNW 5.8 mph - N/A   Clear
7:15 PM 35.6 °F 29.9 °F 26.6 °F 70% 29.98 in 10.0 mi NNW 6.9 mph - N/A   Clear
7:35 PM 33.8 °F 27.7 °F 26.6 °F 75% 29.98 in 10.0 mi North 6.9 mph - N/A   Clear
8:15 PM 33.8 °F 29.6 °F 26.6 °F 75% 29.99 in 10.0 mi North 4.6 mph - N/A   Clear
8:35 PM 33.8 °F 27.7 °F 26.6 °F 75% 29.99 in 10.0 mi North 6.9 mph - N/A   Clear
8:55 PM 33.8 °F 27.0 °F 26.6 °F 75% 29.99 in 10.0 mi North 8.1 mph - N/A   Clear
9:15 PM 32.0 °F 25.6 °F 26.6 °F 80% 30.00 in 10.0 mi North 6.9 mph - N/A   Clear
9:35 PM 32.0 °F 26.4 °F 26.6 °F 80% 30.00 in 10.0 mi North 5.8 mph - N/A   Clear
9:55 PM 32.0 °F 26.4 °F 26.6 °F 80% 30.00 in 10.0 mi North 5.8 mph - N/A   Clear
10:15 PM 30.2 °F 25.4 °F 26.6 °F 86% 30.00 in 10.0 mi North 4.6 mph - N/A   Clear
10:35 PM 30.2 °F 25.4 °F 26.6 °F 86% 29.99 in 10.0 mi NNW 4.6 mph - N/A   Clear
11:15 PM 30.2 °F 26.7 °F 24.8 °F 80% 30.00 in 10.0 mi NNW 3.5 mph - N/A   Clear
11:55 PM 30.2 °F 26.7 °F 26.6 °F 86% 30.00 in 10.0 mi NNW 3.5 mph - N/A   Clear